Time;durP1;ratioP1;P1;durP2;ratioP2;P2;SDS_P1;SDS_P2;PMS_P1;PMS_P2;Temp;Humidity;BMP_temperature;BMP_pressure;BME280_temperature;BME280_humidity;BME280_pressure;Samples;Min_cycle;Max_cycle;Signal;HPM_P1;HPM_P2
2021/03/18 00:01:12;;;;;;;69.38;37.30;;;;;;;;;;5035409;28;20033;-51
2021/03/18 00:03:39;;;;;;;61.28;33.55;;;;;;;;;;5016438;28;20036;-48
2021/03/18 00:06:06;;;;;;;61.42;34.47;;;;;;;;;;5035611;28;20025;-48
2021/03/18 00:08:32;;;;;;;107.90;54.90;;;;;;;;;;5016763;28;20033;-48
2021/03/18 00:10:59;;;;;;;102.57;52.28;;;;;;;;;;5035639;28;20038;-48
2021/03/18 00:13:30;;;;;;;95.47;51.20;;;;;;;;;;5035485;28;20033;-50
2021/03/18 00:15:59;;;;;;;64.93;35.15;;;;;;;;;;5035527;28;20032;-51
2021/03/18 00:18:33;;;;;;;69.78;37.65;;;;;;;;;;5035089;28;20047;-51
2021/03/18 00:21:03;;;;;;;60.08;33.25;;;;;;;;;;5035505;28;20074;-47
2021/03/18 00:23:30;;;;;;;61.35;33.10;;;;;;;;;;5036629;28;20021;-50
2021/03/18 00:25:56;;;;;;;88.97;43.22;;;;;;;;;;5038981;28;20029;-47
2021/03/18 00:28:22;;;;;;;43.72;25.05;;;;;;;;;;5039226;28;20052;-50
2021/03/18 00:30:51;;;;;;;76.38;40.75;;;;;;;;;;5039244;28;20025;-51
2021/03/18 00:33:17;;;;;;;62.92;34.58;;;;;;;;;;5039204;28;20745;-51
2021/03/18 00:35:44;;;;;;;83.07;44.30;;;;;;;;;;5038742;28;20206;-52
2021/03/18 00:38:11;;;;;;;101.55;53.33;;;;;;;;;;5038778;28;20028;-49
2021/03/18 00:40:41;;;;;;;71.53;39.13;;;;;;;;;;5038413;28;20711;-48
2021/03/18 00:43:09;;;;;;;96.63;50.38;;;;;;;;;;5039080;28;20017;-51
2021/03/18 00:45:36;;;;;;;109.20;56.63;;;;;;;;;;5038670;28;20020;-49
2021/03/18 00:48:04;;;;;;;83.70;43.65;;;;;;;;;;5037640;28;20036;-49
2021/03/18 00:50:32;;;;;;;65.47;34.42;;;;;;;;;;5038821;28;20485;-52
2021/03/18 00:52:58;;;;;;;34.58;20.13;;;;;;;;;;5038651;28;20031;-51
2021/03/18 00:55:24;;;;;;;37.60;20.50;;;;;;;;;;5038299;28;20029;-47
2021/03/18 00:57:50;;;;;;;19.42;12.85;;;;;;;;;;5038372;28;20228;-48
2021/03/18 01:00:21;;;;;;;25.10;14.40;;;;;;;;;;5050814;28;20499;-52
2021/03/18 01:02:48;;;;;;;22.38;13.70;;;;;;;;;;5075826;28;20086;-50
2021/03/18 01:05:18;;;;;;;27.20;14.10;;;;;;;;;;5075738;28;20487;-50
2021/03/18 01:07:44;;;;;;;27.60;15.98;;;;;;;;;;5075517;28;20518;-51
2021/03/18 01:10:11;;;;;;;29.30;16.33;;;;;;;;;;5075108;28;20029;-51
2021/03/18 01:12:37;;;;;;;25.58;15.25;;;;;;;;;;5055549;28;20044;-52
2021/03/18 01:15:04;;;;;;;20.60;13.25;;;;;;;;;;5055401;28;20037;-51
2021/03/18 01:17:31;;;;;;;27.65;15.73;;;;;;;;;;5055568;28;20090;-51
2021/03/18 01:19:59;;;;;;;25.10;13.63;;;;;;;;;;5046536;28;20032;-51
2021/03/18 01:22:25;;;;;;;20.85;11.13;;;;;;;;;;5036990;28;20017;-49
2021/03/18 01:24:53;;;;;;;20.02;11.25;;;;;;;;;;5037918;28;20094;-52
2021/03/18 01:27:20;;;;;;;29.02;13.75;;;;;;;;;;5037877;28;20017;-52
2021/03/18 01:29:46;;;;;;;21.02;12.18;;;;;;;;;;5037588;28;20045;-51
2021/03/18 01:32:12;;;;;;;25.13;13.48;;;;;;;;;;5036375;28;20028;-50
2021/03/18 01:34:38;;;;;;;21.00;12.18;;;;;;;;;;5035535;28;20043;-50
2021/03/18 01:37:06;;;;;;;19.48;11.65;;;;;;;;;;5039973;28;20029;-50
2021/03/18 01:39:32;;;;;;;23.50;12.30;;;;;;;;;;5036218;28;20076;-50
2021/03/18 01:41:59;;;;;;;22.63;12.40;;;;;;;;;;5039114;28;20021;-49
2021/03/18 01:44:25;;;;;;;26.45;15.13;;;;;;;;;;5043354;28;20025;-50
2021/03/18 01:46:51;;;;;;;25.23;14.48;;;;;;;;;;5038998;28;20108;-49
2021/03/18 01:49:18;;;;;;;22.27;12.15;;;;;;;;;;5036693;28;20494;-51
2021/03/18 01:51:44;;;;;;;23.00;13.30;;;;;;;;;;5035030;28;20022;-51
2021/03/18 01:54:11;;;;;;;20.40;12.30;;;;;;;;;;5034949;28;20104;-50
2021/03/18 01:56:37;;;;;;;18.75;11.00;;;;;;;;;;5034883;28;20033;-51
2021/03/18 01:59:03;;;;;;;21.25;12.30;;;;;;;;;;5034653;28;20017;-49
2021/03/18 02:01:29;;;;;;;26.23;15.73;;;;;;;;;;5034737;28;20026;-50
2021/03/18 02:03:58;;;;;;;25.33;12.10;;;;;;;;;;5034887;28;20105;-50
2021/03/18 02:06:24;;;;;;;58.92;30.48;;;;;;;;;;5034751;28;20030;-49
2021/03/18 02:08:50;;;;;;;53.45;29.33;;;;;;;;;;5034349;28;20053;-51
2021/03/18 02:11:16;;;;;;;47.92;26.50;;;;;;;;;;5034788;28;20108;-51
2021/03/18 02:13:43;;;;;;;79.47;40.50;;;;;;;;;;5034482;28;20018;-51
2021/03/18 02:16:12;;;;;;;129.98;64.90;;;;;;;;;;5034594;28;20041;-52
2021/03/18 02:18:57;;;;;;;57.08;29.40;;;;;;;;;;5036235;28;20057;-52
2021/03/18 02:21:35;;;;;;;43.33;22.02;;;;;;;;;;5054524;28;20108;-51
2021/03/18 02:24:10;;;;;;;42.00;20.75;;;;;;;;;;5054431;28;20036;-50
2021/03/18 02:26:51;;;;;;;85.65;44.33;;;;;;;;;;5054346;28;20082;-50
2021/03/18 02:29:17;;;;;;;;;;;;;;;;;;5054696;28;20057;-50
2021/03/18 02:31:55;;;;;;;82.63;42.67;;;;;;;;;;5054174;28;20342;-52
2021/03/18 02:34:23;;;;;;;92.32;47.50;;;;;;;;;;5053968;28;20025;-53
2021/03/18 02:37:02;;;;;;;43.10;23.40;;;;;;;;;;5053873;28;20124;-51
2021/03/18 02:39:32;;;;;;;68.75;35.97;;;;;;;;;;5053915;28;20037;-51
2021/03/18 02:42:02;;;;;;;47.20;24.85;;;;;;;;;;5053878;28;20377;-52
2021/03/18 02:44:32;;;;;;;43.25;24.15;;;;;;;;;;5053831;28;20032;-54
2021/03/18 02:47:00;;;;;;;58.70;31.30;;;;;;;;;;5053068;28;20489;-53
2021/03/18 02:49:30;;;;;;;31.40;18.50;;;;;;;;;;5053702;28;20025;-57
2021/03/18 02:51:57;;;;;;;35.25;18.80;;;;;;;;;;5053765;28;20029;-52
2021/03/18 02:54:24;;;;;;;37.83;21.15;;;;;;;;;;5053708;28;20477;-51
2021/03/18 02:56:51;;;;;;;41.63;23.70;;;;;;;;;;5053803;28;20108;-52
2021/03/18 02:59:20;;;;;;;40.20;22.05;;;;;;;;;;5053612;28;20380;-50
2021/03/18 03:01:47;;;;;;;45.42;23.73;;;;;;;;;;5053545;28;20071;-52
2021/03/18 03:04:14;;;;;;;47.85;26.30;;;;;;;;;;5053515;28;20511;-51
2021/03/18 03:06:41;;;;;;;41.95;23.65;;;;;;;;;;5053729;28;20028;-49
2021/03/18 03:09:08;;;;;;;28.85;17.05;;;;;;;;;;5053268;28;20053;-49
2021/03/18 03:11:35;;;;;;;38.83;21.13;;;;;;;;;;5053543;28;20029;-51
2021/03/18 03:14:02;;;;;;;45.92;24.35;;;;;;;;;;5053482;28;20151;-51
2021/03/18 03:16:29;;;;;;;36.20;19.95;;;;;;;;;;5053244;28;20040;-51
2021/03/18 03:18:55;;;;;;;27.92;15.20;;;;;;;;;;5053270;28;20067;-51
2021/03/18 03:21:23;;;;;;;24.63;14.23;;;;;;;;;;5053364;28;20439;-50
2021/03/18 03:23:49;;;;;;;21.17;12.50;;;;;;;;;;5053539;28;20377;-51
2021/03/18 03:26:17;;;;;;;19.65;11.23;;;;;;;;;;5053391;28;20083;-50
2021/03/18 03:28:44;;;;;;;22.33;13.10;;;;;;;;;;5053097;28;20086;-50
2021/03/18 03:31:10;;;;;;;23.08;14.60;;;;;;;;;;5053272;28;20079;-51
2021/03/18 03:33:37;;;;;;;22.48;12.32;;;;;;;;;;5053407;28;20032;-50
2021/03/18 03:36:04;;;;;;;23.60;13.48;;;;;;;;;;5053199;28;20037;-50
2021/03/18 03:38:30;;;;;;;19.73;11.60;;;;;;;;;;5053186;28;20035;-50
2021/03/18 03:40:56;;;;;;;25.13;13.35;;;;;;;;;;5053096;28;20033;-51
2021/03/18 03:43:22;;;;;;;22.77;11.88;;;;;;;;;;5053051;28;20438;-50
2021/03/18 03:45:51;;;;;;;21.02;12.07;;;;;;;;;;5053619;28;20099;-50
2021/03/18 03:48:17;;;;;;;23.30;14.18;;;;;;;;;;5053202;28;20044;-51
2021/03/18 03:50:43;;;;;;;28.17;15.18;;;;;;;;;;5053000;28;20116;-50
2021/03/18 03:53:24;;;;;;;20.45;11.27;;;;;;;;;;5053291;28;20520;-51
2021/03/18 03:56:02;;;;;;;21.30;11.98;;;;;;;;;;5052988;28;20098;-51
2021/03/18 03:58:42;;;;;;;20.38;11.73;;;;;;;;;;5054193;28;20021;-50
2021/03/18 04:01:11;;;;;;;27.02;13.23;;;;;;;;;;5057013;28;20439;-51
2021/03/18 04:03:41;;;;;;;25.35;13.45;;;;;;;;;;5057021;28;20029;-52
2021/03/18 04:06:07;;;;;;;25.05;14.82;;;;;;;;;;5057060;28;20511;-51
2021/03/18 04:08:35;;;;;;;26.00;14.73;;;;;;;;;;5056724;28;20048;-52
2021/03/18 04:11:02;;;;;;;22.30;13.70;;;;;;;;;;5056904;28;20033;-52
2021/03/18 04:13:30;;;;;;;24.67;13.73;;;;;;;;;;5056656;28;20028;-50
2021/03/18 04:15:58;;;;;;;29.13;15.60;;;;;;;;;;5057357;28;20067;-49
2021/03/18 04:18:30;;;;;;;25.40;14.50;;;;;;;;;;5056987;28;20023;-50
2021/03/18 04:20:58;;;;;;;22.25;13.85;;;;;;;;;;5056593;28;20034;-49
2021/03/18 04:23:26;;;;;;;26.23;16.63;;;;;;;;;;5056572;28;20099;-48
2021/03/18 04:25:52;;;;;;;26.95;15.40;;;;;;;;;;5056499;28;20060;-51
2021/03/18 04:28:20;;;;;;;23.92;14.27;;;;;;;;;;5056672;28;20472;-51
2021/03/18 04:30:46;;;;;;;18.48;11.57;;;;;;;;;;5056276;28;20056;-50
2021/03/18 04:33:12;;;;;;;24.42;12.95;;;;;;;;;;5056335;28;20119;-51
2021/03/18 04:35:39;;;;;;;23.67;13.57;;;;;;;;;;5056360;28;20035;-52
2021/03/18 04:38:05;;;;;;;21.30;11.45;;;;;;;;;;5056188;28;20025;-50
2021/03/18 04:40:34;;;;;;;24.05;12.85;;;;;;;;;;5056744;28;20467;-49
2021/03/18 04:43:01;;;;;;;25.60;11.82;;;;;;;;;;5056136;28;20020;-51
2021/03/18 04:45:28;;;;;;;23.67;13.10;;;;;;;;;;5056240;28;20033;-50
2021/03/18 04:47:54;;;;;;;24.60;15.13;;;;;;;;;;5056162;28;20025;-50
2021/03/18 04:50:21;;;;;;;21.38;14.48;;;;;;;;;;5056338;28;20029;-48
2021/03/18 04:52:57;;;;;;;28.90;15.90;;;;;;;;;;5056093;28;20166;-49
2021/03/18 04:55:23;;;;;;;30.65;17.50;;;;;;;;;;5055947;28;20029;-51
2021/03/18 04:58:15;;;;;;;29.08;18.88;;;;;;;;;;5055948;28;20512;-49
2021/03/18 05:00:42;;;;;;;31.77;19.95;;;;;;;;;;5051433;28;20037;-51
2021/03/18 05:03:09;;;;;;;35.17;20.95;;;;;;;;;;5055744;28;20480;-51
2021/03/18 05:05:36;;;;;;;29.48;20.13;;;;;;;;;;5055881;28;20037;-50
2021/03/18 05:08:05;;;;;;;37.85;22.40;;;;;;;;;;5055437;28;20461;-52
2021/03/18 05:10:33;;;;;;;38.65;22.13;;;;;;;;;;5054746;28;20090;-50
2021/03/18 05:13:00;;;;;;;41.47;21.33;;;;;;;;;;5055695;28;20550;-51
2021/03/18 05:15:27;;;;;;;40.47;21.77;;;;;;;;;;5055526;28;20065;-52
2021/03/18 05:17:54;;;;;;;35.95;19.65;;;;;;;;;;5037585;28;20029;-51
2021/03/18 05:20:23;;;;;;;33.75;18.98;;;;;;;;;;5055491;28;20045;-51
2021/03/18 05:22:49;;;;;;;31.02;19.10;;;;;;;;;;5055714;28;20028;-51
2021/03/18 05:25:21;;;;;;;45.15;20.08;;;;;;;;;;5055755;28;20438;-50
2021/03/18 05:27:47;;;;;;;37.13;20.52;;;;;;;;;;5055461;28;20053;-50
2021/03/18 05:30:14;;;;;;;36.65;20.10;;;;;;;;;;5055224;28;20032;-47
2021/03/18 05:32:41;;;;;;;37.25;18.85;;;;;;;;;;5055150;28;20029;-49
2021/03/18 05:35:08;;;;;;;36.17;19.60;;;;;;;;;;5037344;28;20025;-50
2021/03/18 05:37:34;;;;;;;36.65;20.02;;;;;;;;;;5054998;28;20214;-51
2021/03/18 05:40:01;;;;;;;32.78;18.92;;;;;;;;;;5055159;28;20032;-50
2021/03/18 05:42:30;;;;;;;31.95;18.73;;;;;;;;;;5054992;28;20033;-51
2021/03/18 05:44:56;;;;;;;35.83;18.27;;;;;;;;;;5055044;28;20028;-50
2021/03/18 05:47:22;;;;;;;32.40;17.77;;;;;;;;;;5055102;28;20029;-52
2021/03/18 05:49:49;;;;;;;33.72;18.08;;;;;;;;;;5054978;28;20028;-52
2021/03/18 05:52:15;;;;;;;30.02;17.77;;;;;;;;;;5054832;28;20467;-50
2021/03/18 05:54:46;;;;;;;29.33;17.83;;;;;;;;;;5055179;28;20369;-52
2021/03/18 05:57:12;;;;;;;35.70;18.85;;;;;;;;;;5054907;28;20120;-52
2021/03/18 05:59:42;;;;;;;30.63;17.48;;;;;;;;;;5054639;28;20032;-51
2021/03/18 06:02:09;;;;;;;36.28;19.77;;;;;;;;;;5054888;28;20491;-51
2021/03/18 06:04:35;;;;;;;35.22;18.55;;;;;;;;;;5054707;28;20021;-52
2021/03/18 06:07:01;;;;;;;33.75;17.80;;;;;;;;;;5036669;28;20026;-51
2021/03/18 06:09:27;;;;;;;34.22;19.02;;;;;;;;;;5054955;28;20025;-51
2021/03/18 06:11:54;;;;;;;39.65;19.98;;;;;;;;;;5054620;28;20025;-51
2021/03/18 06:14:20;;;;;;;35.25;18.23;;;;;;;;;;5054520;28;20032;-51
2021/03/18 06:16:48;;;;;;;38.17;20.27;;;;;;;;;;5054342;28;20037;-50
2021/03/18 06:19:15;;;;;;;34.72;19.38;;;;;;;;;;5054370;28;20021;-51
2021/03/18 06:21:45;;;;;;;38.92;19.08;;;;;;;;;;5054102;28;20025;-51
2021/03/18 06:24:11;;;;;;;34.97;19.02;;;;;;;;;;5054424;28;20043;-51
2021/03/18 06:26:38;;;;;;;39.42;20.40;;;;;;;;;;5054174;28;20056;-51
2021/03/18 06:29:05;;;;;;;36.92;18.15;;;;;;;;;;5053929;28;20024;-51
2021/03/18 06:31:32;;;;;;;32.10;18.58;;;;;;;;;;5054243;28;20108;-51
2021/03/18 06:33:58;;;;;;;36.42;19.75;;;;;;;;;;5053969;28;20051;-51
2021/03/18 06:36:28;;;;;;;37.22;21.65;;;;;;;;;;5053840;28;20040;-51
2021/03/18 06:39:03;;;;;;;39.17;21.00;;;;;;;;;;5053654;28;20504;-49
2021/03/18 06:41:30;;;;;;;36.75;22.23;;;;;;;;;;5053988;28;20033;-51
2021/03/18 06:43:56;;;;;;;38.85;23.77;;;;;;;;;;5053728;28;20036;-49
2021/03/18 06:46:23;;;;;;;34.75;18.95;;;;;;;;;;5053960;28;20024;-51
2021/03/18 06:48:50;;;;;;;51.28;25.85;;;;;;;;;;5053646;28;20025;-50
2021/03/18 06:51:24;;;;;;;46.65;24.77;;;;;;;;;;5053581;28;20031;-51
2021/03/18 06:53:51;;;;;;;31.63;18.65;;;;;;;;;;5053836;28;20021;-50
2021/03/18 06:56:23;;;;;;;34.65;19.73;;;;;;;;;;5053553;28;20039;-48
2021/03/18 06:58:49;;;;;;;40.22;20.42;;;;;;;;;;5053596;28;20025;-50
2021/03/18 07:01:21;;;;;;;48.13;26.80;;;;;;;;;;5053508;28;20473;-51
2021/03/18 07:03:47;;;;;;;;;;;;;;;;;;5054134;28;20017;-49
2021/03/18 07:06:25;;;;;;;57.20;30.45;;;;;;;;;;5053738;28;19904;-50
2021/03/18 07:09:01;;;;;;;58.47;29.88;;;;;;;;;;5053099;28;20127;-49
2021/03/18 07:11:27;;;;;;;52.70;27.67;;;;;;;;;;5053339;28;20044;-51
2021/03/18 07:13:53;;;;;;;50.78;26.85;;;;;;;;;;5053465;28;20040;-51
2021/03/18 07:16:19;;;;;;;42.42;22.65;;;;;;;;;;5053035;28;20032;-53
2021/03/18 07:18:56;;;;;;;39.88;21.27;;;;;;;;;;5053238;28;20025;-52
2021/03/18 07:21:33;;;;;;;48.33;25.45;;;;;;;;;;5053283;28;20027;-52
2021/03/18 07:23:59;;;;;;;68.43;36.70;;;;;;;;;;5053075;28;20025;-51
2021/03/18 07:26:25;;;;;;;55.28;28.50;;;;;;;;;;5053138;28;20029;-51
2021/03/18 07:28:53;;;;;;;46.83;25.63;;;;;;;;;;5053256;28;20033;-50
2021/03/18 07:31:20;;;;;;;36.72;19.25;;;;;;;;;;5053146;28;20121;-52
2021/03/18 07:33:47;;;;;;;38.97;22.85;;;;;;;;;;5052664;28;20195;-49
2021/03/18 07:36:13;;;;;;;45.80;24.00;;;;;;;;;;5053249;28;20083;-51
2021/03/18 07:38:41;;;;;;;52.92;27.90;;;;;;;;;;5052975;28;20056;-50
2021/03/18 07:41:14;;;;;;;57.25;31.42;;;;;;;;;;5053120;28;20033;-50
2021/03/18 07:43:45;;;;;;;45.58;26.38;;;;;;;;;;5053350;28;20025;-51
2021/03/18 07:46:21;;;;;;;38.40;21.83;;;;;;;;;;5053093;28;20469;-51
2021/03/18 07:48:52;;;;;;;73.75;39.30;;;;;;;;;;5053264;28;20026;-51
2021/03/18 07:51:19;;;;;;;44.92;25.23;;;;;;;;;;5053019;28;20105;-51
2021/03/18 07:53:53;;;;;;;46.13;26.80;;;;;;;;;;5053212;28;20465;-52
2021/03/18 07:56:19;;;;;;;59.55;31.77;;;;;;;;;;5052757;28;20444;-50
2021/03/18 07:58:46;;;;;;;50.97;29.48;;;;;;;;;;5053122;28;20072;-50
2021/03/18 08:01:33;;;;;;;44.63;23.20;;;;;;;;;;5052965;28;20117;-50
2021/03/18 08:03:59;;;;;;;46.58;25.83;;;;;;;;;;5052877;28;20029;-53
2021/03/18 08:06:44;;;;;;;75.50;37.95;;;;;;;;;;5052826;28;20132;-53
2021/03/18 08:09:11;;;;;;;53.25;28.70;;;;;;;;;;5052274;28;20041;-50
2021/03/18 08:11:38;;;;;;;83.70;41.63;;;;;;;;;;5052781;28;20142;-53
2021/03/18 08:14:09;;;;;;;34.95;20.48;;;;;;;;;;5052818;28;20107;-55
2021/03/18 08:16:35;;;;;;;78.97;41.53;;;;;;;;;;5052690;28;20154;-54
2021/03/18 08:19:02;;;;;;;28.90;17.35;;;;;;;;;;5052661;28;20548;-48
2021/03/18 08:21:49;;;;;;;42.90;22.38;;;;;;;;;;5052934;28;20039;-52
2021/03/18 08:24:17;;;;;;;52.97;26.02;;;;;;;;;;5036058;28;20112;-47
2021/03/18 08:26:50;;;;;;;61.55;32.90;;;;;;;;;;5032973;28;20040;-52
2021/03/18 08:29:39;;;;;;;87.25;45.15;;;;;;;;;;5032957;28;20017;-53
2021/03/18 08:32:06;;;;;;;72.70;37.53;;;;;;;;;;5032698;28;20029;-51
2021/03/18 08:34:45;;;;;;;52.38;27.42;;;;;;;;;;5032863;28;20021;-50
2021/03/18 08:37:13;;;;;;;140.65;70.93;;;;;;;;;;5032655;28;20564;-46
2021/03/18 08:39:45;;;;;;;63.70;35.35;;;;;;;;;;5032765;28;20052;-48
2021/03/18 08:42:38;;;;;;;74.60;40.92;;;;;;;;;;5032390;28;20101;-51
2021/03/18 08:45:24;;;;;;;44.13;26.00;;;;;;;;;;5030210;28;20084;-49
2021/03/18 08:47:52;;;;;;;69.18;34.13;;;;;;;;;;5025874;28;20061;-52
2021/03/18 08:50:24;;;;;;;82.18;41.08;;;;;;;;;;5036033;28;20025;-49
2021/03/18 08:52:51;;;;;;;40.70;23.45;;;;;;;;;;5041012;28;20056;-53
2021/03/18 08:55:36;;;;;;;64.70;33.95;;;;;;;;;;5055907;28;20029;-51
2021/03/18 08:58:05;;;;;;;58.30;31.70;;;;;;;;;;5055968;28;20112;-50
2021/03/18 09:00:32;;;;;;;47.00;25.63;;;;;;;;;;5055796;28;20039;-47
2021/03/18 09:02:59;;;;;;;31.33;19.40;;;;;;;;;;5055631;28;20546;-54
2021/03/18 09:05:27;;;;;;;57.00;27.67;;;;;;;;;;5055600;28;20032;-52
2021/03/18 09:07:54;;;;;;;36.92;20.75;;;;;;;;;;5055408;28;20045;-54
2021/03/18 09:10:24;;;;;;;65.22;31.25;;;;;;;;;;5055749;28;20059;-52
2021/03/18 09:12:53;;;;;;;43.65;20.95;;;;;;;;;;5055624;28;20094;-51
2021/03/18 09:15:27;;;;;;;35.53;19.90;;;;;;;;;;5055394;28;20527;-53
2021/03/18 09:17:55;;;;;;;30.35;18.02;;;;;;;;;;5055401;28;20115;-51
2021/03/18 09:20:22;;;;;;;52.20;24.58;;;;;;;;;;5055535;28;20056;-53
2021/03/18 09:22:48;;;;;;;49.42;24.63;;;;;;;;;;5055622;28;20025;-52
2021/03/18 09:25:15;;;;;;;45.35;23.60;;;;;;;;;;5055766;28;20104;-53
2021/03/18 09:27:43;;;;;;;34.15;18.38;;;;;;;;;;5055455;28;20146;-49
2021/03/18 09:30:22;;;;;;;47.50;21.42;;;;;;;;;;5055404;28;20134;-50
2021/03/18 09:32:48;;;;;;;36.55;20.50;;;;;;;;;;5055221;28;20048;-54
2021/03/18 09:35:15;;;;;;;34.85;20.05;;;;;;;;;;5055259;28;20021;-52
2021/03/18 09:37:43;;;;;;;32.08;19.35;;;;;;;;;;5055094;28;20037;-50
2021/03/18 09:40:10;;;;;;;36.33;19.63;;;;;;;;;;5055330;28;20106;-49
2021/03/18 09:42:37;;;;;;;38.30;20.95;;;;;;;;;;5055317;28;20028;-51
2021/03/18 09:45:06;;;;;;;38.65;22.08;;;;;;;;;;5055003;28;20017;-54
2021/03/18 09:47:33;;;;;;;39.33;23.10;;;;;;;;;;5054475;28;20091;-53
2021/03/18 09:49:59;;;;;;;27.77;17.75;;;;;;;;;;5055161;28;20477;-54
2021/03/18 09:52:27;;;;;;;28.20;18.60;;;;;;;;;;5055245;28;20774;-53
2021/03/18 09:54:56;;;;;;;26.73;16.95;;;;;;;;;;5055189;28;20433;-50
2021/03/18 09:57:23;;;;;;;33.58;18.15;;;;;;;;;;5054248;28;20112;-53
2021/03/18 09:59:51;;;;;;;28.25;16.05;;;;;;;;;;5054935;28;20444;-52
2021/03/18 10:02:17;;;;;;;26.70;16.73;;;;;;;;;;5055032;28;20392;-52
2021/03/18 10:04:44;;;;;;;23.45;16.27;;;;;;;;;;5054810;28;20020;-52
2021/03/18 10:07:11;;;;;;;24.95;14.77;;;;;;;;;;5055167;28;20028;-52
2021/03/18 10:09:41;;;;;;;27.80;16.10;;;;;;;;;;5054642;28;20056;-52
2021/03/18 10:12:12;;;;;;;24.90;16.38;;;;;;;;;;5054678;28;20079;-52
2021/03/18 10:14:43;;;;;;;21.40;14.55;;;;;;;;;;5036579;28;20444;-53
2021/03/18 10:17:09;;;;;;;;;;;;;;;;;;5054958;28;20040;-51
2021/03/18 10:19:37;;;;;;;27.90;16.60;;;;;;;;;;5054634;28;20352;-49
2021/03/18 10:22:08;;;;;;;19.33;14.07;;;;;;;;;;5054563;28;20441;-47
2021/03/18 10:24:34;;;;;;;21.42;13.30;;;;;;;;;;5054395;28;20029;-52
2021/03/18 10:27:14;;;;;;;23.77;14.73;;;;;;;;;;5054594;28;20033;-51
2021/03/18 10:29:40;;;;;;;20.95;13.63;;;;;;;;;;5054478;28;20427;-53
2021/03/18 10:32:11;;;;;;;18.00;12.48;;;;;;;;;;5054353;28;20029;-51
2021/03/18 10:34:37;;;;;;;19.88;14.00;;;;;;;;;;5054327;28;20112;-52
2021/03/18 10:37:05;;;;;;;22.33;14.20;;;;;;;;;;5054134;28;20036;-53
2021/03/18 10:39:31;;;;;;;20.73;13.75;;;;;;;;;;5054322;28;20531;-54
2021/03/18 10:41:59;;;;;;;16.17;11.73;;;;;;;;;;5054036;28;20116;-53
2021/03/18 10:44:35;;;;;;;22.15;13.07;;;;;;;;;;5054101;28;20469;-50
2021/03/18 10:47:18;;;;;;;16.80;11.35;;;;;;;;;;5054044;28;20029;-53
2021/03/18 10:50:04;;;;;;;18.75;12.50;;;;;;;;;;5054097;28;20036;-53
2021/03/18 10:52:30;;;;;;;17.48;11.18;;;;;;;;;;5053916;28;20041;-51
2021/03/18 10:54:57;;;;;;;16.83;11.10;;;;;;;;;;5053922;28;20519;-51
2021/03/18 10:57:27;;;;;;;18.88;12.15;;;;;;;;;;5053981;28;20033;-50
2021/03/18 11:00:00;;;;;;;21.52;12.57;;;;;;;;;;5053914;28;20013;-52
2021/03/18 11:02:27;;;;;;;17.67;12.35;;;;;;;;;;5053672;28;20468;-57
2021/03/18 11:04:53;;;;;;;22.25;14.55;;;;;;;;;;5053711;28;20029;-52
2021/03/18 11:07:19;;;;;;;26.75;18.75;;;;;;;;;;5053055;28;20033;-52
2021/03/18 11:09:45;;;;;;;26.58;17.75;;;;;;;;;;5053096;28;20029;-53
2021/03/18 11:12:11;;;;;;;23.35;15.20;;;;;;;;;;5053615;28;20111;-52
2021/03/18 11:14:37;;;;;;;23.20;15.43;;;;;;;;;;5053634;28;20083;-52
2021/03/18 11:17:07;;;;;;;38.90;20.05;;;;;;;;;;5053566;28;20044;-53
2021/03/18 11:19:34;;;;;;;41.22;21.13;;;;;;;;;;5053358;28;20047;-51
2021/03/18 11:22:06;;;;;;;65.43;28.70;;;;;;;;;;5053320;28;20021;-46
2021/03/18 11:24:32;;;;;;;24.08;13.23;;;;;;;;;;5053307;28;20480;-53
2021/03/18 11:26:59;;;;;;;21.17;12.27;;;;;;;;;;5053302;28;20089;-59
2021/03/18 11:29:30;;;;;;;45.53;18.45;;;;;;;;;;5053471;28;20028;-55
2021/03/18 11:31:57;;;;;;;51.85;22.25;;;;;;;;;;5053359;28;20151;-58
2021/03/18 11:34:27;;;;;;;95.60;32.08;;;;;;;;;;5053272;28;20489;-53
2021/03/18 11:36:57;;;;;;;65.95;23.98;;;;;;;;;;5053280;28;20029;-53
2021/03/18 11:39:24;;;;;;;24.95;13.43;;;;;;;;;;5053368;28;20489;-50
2021/03/18 11:41:51;;;;;;;44.88;18.25;;;;;;;;;;5053361;28;20036;-47
2021/03/18 11:44:17;;;;;;;19.67;12.32;;;;;;;;;;5053180;28;20021;-52
2021/03/18 11:46:43;;;;;;;25.10;12.63;;;;;;;;;;5053153;28;20031;-51
2021/03/18 11:49:10;;;;;;;27.52;14.15;;;;;;;;;;5052979;28;20041;-55
2021/03/18 11:51:36;;;;;;;20.40;11.52;;;;;;;;;;5053494;28;20464;-52
2021/03/18 11:54:05;;;;;;;16.88;10.68;;;;;;;;;;5053626;28;20112;-52
2021/03/18 11:56:33;;;;;;;18.98;12.15;;;;;;;;;;5053050;28;20040;-50
2021/03/18 11:58:59;;;;;;;34.88;16.02;;;;;;;;;;5053305;28;20014;-47
2021/03/18 12:01:25;;;;;;;29.13;14.70;;;;;;;;;;5052857;28;20032;-52
2021/03/18 12:03:51;;;;;;;17.83;11.57;;;;;;;;;;5053123;28;20447;-49
2021/03/18 12:06:17;;;;;;;20.55;13.13;;;;;;;;;;5053280;28;20045;-49
2021/03/18 12:08:43;;;;;;;18.17;12.25;;;;;;;;;;5052789;28;20052;-50
2021/03/18 12:11:10;;;;;;;34.47;16.35;;;;;;;;;;5053170;28;20083;-50
2021/03/18 12:13:37;;;;;;;23.88;11.80;;;;;;;;;;5052999;28;20428;-48
2021/03/18 12:16:03;;;;;;;20.27;10.73;;;;;;;;;;5052843;28;20100;-51
2021/03/18 12:18:30;;;;;;;18.08;11.10;;;;;;;;;;5052815;28;20110;-52
2021/03/18 12:20:56;;;;;;;16.33;10.85;;;;;;;;;;5056564;28;20021;-48
2021/03/18 12:23:22;;;;;;;18.50;11.15;;;;;;;;;;5056980;28;20384;-50
2021/03/18 12:25:48;;;;;;;20.50;10.05;;;;;;;;;;5056744;28;20027;-50
2021/03/18 12:28:15;;;;;;;16.65;10.30;;;;;;;;;;5056645;28;20029;-51
2021/03/18 12:30:45;;;;;;;18.92;11.07;;;;;;;;;;5056544;28;20489;-53
2021/03/18 12:33:11;;;;;;;19.02;10.88;;;;;;;;;;5056453;28;20017;-47
2021/03/18 12:35:37;;;;;;;15.80;10.45;;;;;;;;;;5056768;28;20021;-47
2021/03/18 12:38:06;;;;;;;21.98;12.32;;;;;;;;;;5056380;28;20124;-46
2021/03/18 12:40:32;;;;;;;20.15;11.07;;;;;;;;;;5056747;28;20029;-49
2021/03/18 12:42:59;;;;;;;16.30;10.77;;;;;;;;;;5056350;28;20441;-49
2021/03/18 12:45:25;;;;;;;16.65;10.88;;;;;;;;;;5056367;28;20017;-53
2021/03/18 12:47:51;;;;;;;17.73;10.75;;;;;;;;;;5056456;28;20036;-49
2021/03/18 12:50:21;;;;;;;15.70;9.77;;;;;;;;;;5056381;28;20021;-49
2021/03/18 12:52:47;;;;;;;15.05;10.25;;;;;;;;;;5056204;28;20055;-48
2021/03/18 12:55:15;;;;;;;17.10;9.90;;;;;;;;;;5056407;28;20048;-48
2021/03/18 12:57:41;;;;;;;17.25;9.48;;;;;;;;;;5056348;28;20086;-48
2021/03/18 13:00:10;;;;;;;20.00;11.18;;;;;;;;;;5056021;28;20029;-46
2021/03/18 13:02:36;;;;;;;16.45;10.90;;;;;;;;;;5055915;28;20108;-47
2021/03/18 13:05:03;;;;;;;18.75;10.05;;;;;;;;;;5055884;28;20021;-46
2021/03/18 13:07:31;;;;;;;17.27;10.02;;;;;;;;;;5055730;28;20098;-51
2021/03/18 13:09:58;;;;;;;14.40;8.85;;;;;;;;;;5055832;28;20033;-47
2021/03/18 13:12:24;;;;;;;16.65;9.23;;;;;;;;;;5055648;28;20025;-51
2021/03/18 13:14:50;;;;;;;19.02;11.02;;;;;;;;;;5055748;28;20024;-51
2021/03/18 13:17:16;;;;;;;16.48;10.35;;;;;;;;;;5055437;28;20083;-51
2021/03/18 13:19:43;;;;;;;20.42;9.77;;;;;;;;;;5055675;28;20094;-46
2021/03/18 13:22:09;;;;;;;10.88;7.68;;;;;;;;;;5055837;28;20021;-50
2021/03/18 13:24:35;;;;;;;13.82;8.45;;;;;;;;;;5055607;28;20025;-50
2021/03/18 13:27:01;;;;;;;11.80;8.20;;;;;;;;;;5055549;28;20028;-48
2021/03/18 13:29:27;;;;;;;17.67;10.32;;;;;;;;;;5055571;28;20028;-50
2021/03/18 13:31:54;;;;;;;16.00;9.73;;;;;;;;;;5054464;28;20056;-48
2021/03/18 13:34:20;;;;;;;13.77;9.35;;;;;;;;;;5055326;28;20024;-47
2021/03/18 13:36:46;;;;;;;15.38;10.30;;;;;;;;;;5055430;28;20495;-51
2021/03/18 13:39:12;;;;;;;24.05;11.70;;;;;;;;;;5055430;28;20035;-47
2021/03/18 13:41:38;;;;;;;16.40;10.75;;;;;;;;;;5055140;28;20476;-53
2021/03/18 13:44:05;;;;;;;14.93;9.40;;;;;;;;;;5054808;28;20039;-46
2021/03/18 13:46:31;;;;;;;14.65;10.05;;;;;;;;;;5054964;28;20029;-52
2021/03/18 13:48:57;;;;;;;11.68;8.30;;;;;;;;;;5054671;28;20075;-55
2021/03/18 13:51:23;;;;;;;25.63;16.92;;;;;;;;;;5055012;28;20033;-53
2021/03/18 13:53:50;;;;;;;49.97;28.10;;;;;;;;;;5055070;28;20479;-56
2021/03/18 13:56:16;;;;;;;33.55;21.08;;;;;;;;;;5054855;28;20055;-53
2021/03/18 13:58:42;;;;;;;36.50;23.35;;;;;;;;;;5054891;28;20051;-52
2021/03/18 14:01:08;;;;;;;53.28;32.20;;;;;;;;;;5054839;28;20025;-51
2021/03/18 14:03:34;;;;;;;39.47;22.52;;;;;;;;;;5054414;28;20083;-54
2021/03/18 14:06:01;;;;;;;50.28;27.88;;;;;;;;;;5054664;28;20045;-52
2021/03/18 14:08:27;;;;;;;25.77;15.50;;;;;;;;;;5054210;28;20056;-51
2021/03/18 14:10:53;;;;;;;30.48;19.58;;;;;;;;;;5054580;28;20040;-52
2021/03/18 14:13:19;;;;;;;36.58;20.75;;;;;;;;;;5054553;28;20025;-48
2021/03/18 14:15:46;;;;;;;32.85;19.40;;;;;;;;;;5054464;28;20483;-46
2021/03/18 14:18:16;;;;;;;34.72;17.58;;;;;;;;;;5054383;28;20033;-50
2021/03/18 14:20:43;;;;;;;54.20;25.77;;;;;;;;;;5079492;22;20077;-47
2021/03/18 14:23:10;;;;;;;66.68;34.08;;;;;;;;;;4974539;28;20054;-48
2021/03/18 14:25:37;;;;;;;26.50;16.55;;;;;;;;;;4990604;28;20054;-48